createdAt,value
2023-01-29T00:00:14.187Z,8.00
2023-01-29T00:03:02.732Z,7.60
2023-01-29T00:05:32.713Z,6.40
2023-01-29T00:08:01.138Z,5.70
2023-01-29T00:10:29.675Z,6.53
2023-01-29T00:12:58.053Z,8.00
2023-01-29T00:15:26.695Z,6.63
2023-01-29T00:17:55.022Z,7.23
2023-01-29T00:20:23.708Z,7.63
2023-01-29T00:22:53.661Z,7.20
2023-01-29T00:25:22.231Z,7.33
2023-01-29T00:27:50.414Z,6.60
2023-01-29T00:30:21.008Z,7.60
2023-01-29T00:32:49.175Z,5.97
2023-01-29T00:35:17.834Z,7.23
2023-01-29T00:37:46.187Z,7.17
2023-01-29T00:40:16.791Z,5.60
2023-01-29T00:43:03.982Z,5.97
2023-01-29T00:45:32.544Z,6.00
2023-01-29T00:48:01.068Z,7.10
2023-01-29T00:50:29.755Z,5.90
2023-01-29T00:52:58.157Z,5.83
2023-01-29T00:55:28.140Z,7.00
2023-01-29T00:57:56.678Z,6.97
2023-01-29T01:00:25.889Z,5.57
2023-01-29T01:03:08.205Z,5.97
2023-01-29T01:05:39.262Z,6.10
2023-01-29T01:08:28.625Z,6.13
2023-01-29T01:11:02.170Z,6.03
2023-01-29T01:13:32.249Z,5.57
2023-01-29T01:16:01.215Z,6.77
2023-01-29T01:18:31.791Z,6.37
2023-01-29T01:21:00.385Z,6.00
2023-01-29T01:23:28.757Z,6.30
2023-01-29T01:25:57.461Z,6.13
2023-01-29T01:28:27.120Z,5.70
2023-01-29T01:30:56.035Z,5.07
2023-01-29T01:33:24.861Z,5.17
2023-01-29T01:35:53.417Z,5.10
2023-01-29T01:38:21.670Z,4.60
2023-01-29T01:40:50.165Z,5.63
2023-01-29T01:43:18.430Z,4.70
2023-01-29T01:45:48.520Z,5.03
2023-01-29T01:48:20.660Z,5.27
2023-01-29T01:50:53.494Z,5.30
2023-01-29T01:53:27.641Z,5.17
2023-01-29T01:56:01.702Z,4.27
2023-01-29T01:58:34.463Z,4.43
2023-01-29T02:01:07.561Z,3.83
2023-01-29T02:03:56.972Z,4.80
2023-01-29T02:06:42.983Z,4.80
2023-01-29T02:09:31.601Z,4.50
2023-01-29T02:12:00.140Z,4.33
2023-01-29T02:14:28.498Z,4.50
2023-01-29T02:16:58.683Z,4.10
2023-01-29T02:19:40.258Z,4.27
2023-01-29T02:22:29.212Z,4.37
2023-01-29T02:25:23.325Z,4.20
2023-01-29T02:28:21.556Z,3.07
2023-01-29T02:31:00.389Z,3.33
2023-01-29T02:33:39.718Z,3.33
2023-01-29T02:36:17.069Z,3.60
2023-01-29T02:38:52.008Z,3.57
2023-01-29T02:41:28.375Z,4.10
2023-01-29T02:44:06.019Z,3.40
2023-01-29T02:46:38.824Z,3.30
2023-01-29T02:49:12.840Z,3.63
2023-01-29T02:51:46.291Z,3.30
2023-01-29T02:54:22.666Z,3.67
2023-01-29T02:56:56.032Z,2.63
2023-01-29T02:59:30.979Z,3.13
2023-01-29T03:02:04.354Z,4.13
2023-01-29T03:04:38.610Z,3.77
2023-01-29T03:07:11.791Z,3.20
2023-01-29T03:09:48.034Z,3.13
2023-01-29T03:12:34.121Z,3.23
2023-01-29T03:15:12.590Z,3.47
2023-01-29T03:17:46.895Z,2.90
2023-01-29T03:20:20.870Z,2.23
2023-01-29T03:22:54.007Z,2.43
2023-01-29T03:25:42.527Z,2.70
2023-01-29T03:28:30.745Z,2.30
2023-01-29T03:31:21.883Z,2.63
2023-01-29T03:33:52.875Z,3.17
2023-01-29T03:36:38.310Z,2.90
2023-01-29T03:39:07.596Z,3.43
2023-01-29T03:41:39.499Z,3.60
2023-01-29T03:44:16.012Z,3.93
2023-01-29T03:46:54.658Z,3.60
2023-01-29T03:49:32.695Z,3.33
2023-01-29T03:52:05.531Z,3.03
2023-01-29T03:54:48.018Z,3.27
2023-01-29T03:57:26.098Z,3.87
2023-01-29T04:00:02.275Z,3.03
2023-01-29T04:02:39.844Z,3.13
2023-01-29T04:05:15.108Z,3.13
2023-01-29T04:07:46.503Z,3.40
2023-01-29T04:10:18.299Z,3.13
2023-01-29T04:12:50.371Z,3.30
2023-01-29T04:15:20.136Z,3.30
2023-01-29T04:17:52.735Z,3.97
2023-01-29T04:20:21.949Z,3.20
2023-01-29T04:22:52.082Z,2.63
2023-01-29T04:25:26.703Z,2.73
2023-01-29T04:28:06.304Z,3.30
2023-01-29T04:30:42.739Z,3.40
2023-01-29T04:33:25.320Z,3.47
2023-01-29T04:36:07.253Z,2.43
2023-01-29T04:38:47.310Z,2.13
2023-01-29T04:41:24.384Z,3.13
2023-01-29T04:44:06.332Z,3.00
2023-01-29T04:46:45.055Z,2.47
2023-01-29T04:49:26.246Z,2.73
2023-01-29T04:52:02.924Z,3.00
2023-01-29T04:54:45.789Z,2.23
2023-01-29T04:57:25.555Z,3.30
2023-01-29T04:59:59.311Z,3.50
2023-01-29T05:02:28.990Z,3.13
2023-01-29T05:05:00.218Z,3.57
2023-01-29T05:07:31.969Z,2.37
2023-01-29T05:10:01.427Z,3.07
2023-01-29T05:12:31.924Z,2.80
2023-01-29T05:15:03.940Z,3.20
2023-01-29T05:17:32.445Z,3.43
2023-01-29T05:20:02.704Z,2.97
2023-01-29T05:22:31.761Z,3.10
2023-01-29T05:25:00.270Z,3.20
2023-01-29T05:27:51.033Z,2.63
2023-01-29T05:30:19.766Z,3.57
2023-01-29T05:32:48.046Z,3.77
2023-01-29T05:35:18.112Z,2.60
2023-01-29T05:37:46.501Z,3.57
2023-01-29T05:40:15.509Z,3.67
2023-01-29T05:42:44.216Z,3.30
2023-01-29T05:45:12.891Z,3.17
2023-01-29T05:47:41.108Z,3.07
2023-01-29T05:50:10.730Z,3.73
2023-01-29T05:52:40.648Z,3.40
2023-01-29T05:55:10.605Z,3.53
2023-01-29T05:57:40.458Z,3.77
2023-01-29T06:00:10.302Z,3.93
2023-01-29T06:02:38.506Z,4.20
2023-01-29T06:05:07.570Z,3.90
2023-01-29T06:07:36.165Z,3.30
2023-01-29T06:10:06.585Z,4.20
2023-01-29T06:12:34.743Z,4.27
2023-01-29T06:15:03.405Z,3.27
2023-01-29T06:17:31.852Z,3.70
2023-01-29T06:20:00.392Z,4.10
2023-01-29T06:22:28.862Z,4.60
2023-01-29T06:24:57.505Z,4.37
2023-01-29T06:27:27.252Z,4.10
2023-01-29T06:29:55.711Z,3.83
2023-01-29T06:32:24.028Z,3.90
2023-01-29T06:34:53.241Z,4.17
2023-01-29T06:37:21.588Z,3.63
2023-01-29T06:39:50.609Z,5.03
2023-01-29T06:42:20.630Z,4.70
2023-01-29T06:44:50.760Z,4.70
2023-01-29T06:47:19.037Z,4.57
2023-01-29T06:49:47.618Z,4.40
2023-01-29T06:52:15.980Z,3.60
2023-01-29T06:54:44.558Z,4.30
2023-01-29T06:57:12.819Z,3.80
2023-01-29T06:59:41.360Z,4.20
2023-01-29T07:02:12.427Z,4.00
2023-01-29T07:04:41.672Z,4.20
2023-01-29T07:07:13.500Z,4.47
2023-01-29T07:09:44.732Z,3.47
2023-01-29T07:12:13.240Z,4.53
2023-01-29T07:14:41.717Z,4.10
2023-01-29T07:17:11.531Z,4.33
2023-01-29T07:19:40.183Z,4.30
2023-01-29T07:22:08.567Z,4.07
2023-01-29T07:24:37.181Z,4.23
2023-01-29T07:27:05.530Z,4.33
2023-01-29T07:29:34.085Z,4.47
2023-01-29T07:32:02.422Z,4.20
2023-01-29T07:34:32.450Z,4.60
2023-01-29T07:37:00.923Z,4.23
2023-01-29T07:39:29.503Z,4.67
2023-01-29T07:41:57.882Z,4.40
2023-01-29T07:44:26.573Z,4.97
2023-01-29T07:46:54.788Z,4.60
2023-01-29T07:49:23.378Z,5.10
2023-01-29T07:51:53.065Z,5.17
2023-01-29T07:54:21.707Z,5.50
2023-01-29T07:56:50.094Z,5.77
2023-01-29T07:59:18.678Z,4.57
2023-01-29T08:01:46.925Z,4.50
2023-01-29T08:04:15.418Z,5.53
2023-01-29T08:06:43.657Z,5.03
2023-01-29T08:09:14.582Z,5.40
2023-01-29T08:11:42.918Z,4.70
2023-01-29T08:14:11.616Z,4.60
2023-01-29T08:16:39.945Z,4.43
2023-01-29T08:19:08.879Z,4.83
2023-01-29T08:21:37.224Z,5.27
2023-01-29T08:24:06.505Z,5.30
2023-01-29T08:26:36.040Z,5.27
2023-01-29T08:29:04.716Z,5.47
2023-01-29T08:31:33.585Z,4.77
2023-01-29T08:34:02.268Z,5.60
2023-01-29T08:36:30.862Z,6.07
2023-01-29T08:38:59.685Z,5.70
2023-01-29T08:41:28.118Z,5.83
2023-01-29T08:44:00.380Z,5.27
2023-01-29T08:46:28.819Z,5.80
2023-01-29T08:48:57.417Z,5.97
2023-01-29T08:51:27.375Z,5.17
2023-01-29T08:53:56.155Z,4.57
2023-01-29T08:56:24.747Z,5.33
2023-01-29T08:58:53.417Z,5.67
2023-01-29T09:01:23.008Z,5.47
2023-01-29T09:03:53.111Z,5.23
2023-01-29T09:06:21.419Z,6.10
2023-01-29T09:08:50.109Z,6.13
2023-01-29T09:11:18.399Z,6.27
2023-01-29T09:13:47.126Z,5.40
2023-01-29T09:16:15.431Z,6.77
2023-01-29T09:18:45.650Z,5.53
2023-01-29T09:21:13.954Z,5.40
2023-01-29T09:23:42.704Z,6.17
2023-01-29T09:26:11.052Z,7.30
2023-01-29T09:28:39.675Z,6.27
2023-01-29T09:31:08.011Z,6.20
2023-01-29T09:33:36.597Z,6.37
2023-01-29T09:36:07.287Z,5.60
2023-01-29T09:38:35.877Z,6.00
2023-01-29T09:41:14.235Z,6.50
2023-01-29T09:43:48.220Z,6.60
2023-01-29T09:46:23.994Z,5.87
2023-01-29T09:48:59.800Z,5.83
2023-01-29T09:51:35.196Z,6.97
2023-01-29T09:54:15.953Z,7.47
2023-01-29T09:56:46.474Z,7.27
2023-01-29T09:59:18.338Z,5.63
2023-01-29T10:01:56.705Z,7.20
2023-01-29T10:04:51.869Z,6.97
2023-01-29T10:07:46.735Z,6.53
2023-01-29T10:10:27.980Z,7.50
2023-01-29T10:13:06.914Z,7.53
2023-01-29T10:15:55.781Z,6.87
2023-01-29T10:18:48.651Z,7.17
2023-01-29T10:21:36.419Z,6.73
2023-01-29T10:24:18.500Z,7.23
2023-01-29T10:26:47.328Z,7.00
2023-01-29T10:29:19.954Z,6.67
2023-01-29T10:31:52.217Z,6.00
2023-01-29T10:34:28.817Z,6.67
2023-01-29T10:36:57.943Z,6.93
2023-01-29T10:39:30.968Z,7.00
2023-01-29T10:42:14.368Z,5.83
2023-01-29T10:45:01.551Z,7.53
2023-01-29T10:47:50.718Z,7.53
2023-01-29T10:50:29.712Z,7.20
2023-01-29T10:53:32.033Z,8.73
2023-01-29T10:56:22.285Z,8.07
2023-01-29T10:58:54.744Z,8.30
2023-01-29T11:01:23.127Z,8.43
2023-01-29T11:03:58.926Z,8.20
2023-01-29T11:06:31.113Z,8.03
2023-01-29T11:09:08.189Z,7.43
2023-01-29T11:11:45.256Z,8.50
2023-01-29T11:14:17.393Z,9.00
2023-01-29T11:16:48.086Z,8.57
2023-01-29T11:19:17.967Z,9.23
2023-01-29T11:21:54.403Z,10.53
2023-01-29T11:24:22.916Z,10.07
2023-01-29T11:26:54.307Z,10.10
2023-01-29T11:29:42.267Z,8.50
2023-01-29T11:32:15.153Z,9.83
2023-01-29T11:35:04.411Z,9.10
2023-01-29T11:37:38.483Z,9.80
2023-01-29T11:40:36.791Z,7.83
2023-01-29T11:43:31.709Z,9.57
2023-01-29T11:46:03.285Z,8.63
2023-01-29T11:48:40.983Z,8.20
2023-01-29T11:51:12.025Z,7.60
2023-01-29T11:53:42.094Z,8.97
2023-01-29T11:56:22.218Z,9.50
2023-01-29T11:58:55.473Z,8.97
2023-01-29T12:01:33.038Z,8.37
2023-01-29T12:04:11.198Z,8.57
2023-01-29T12:06:45.260Z,8.27
2023-01-29T12:09:19.511Z,8.90
2023-01-29T12:11:48.230Z,8.70
2023-01-29T12:14:29.943Z,7.90
2023-01-29T12:17:04.485Z,8.77
2023-01-29T12:19:38.111Z,8.93
2023-01-29T12:22:12.078Z,9.10
2023-01-29T12:24:46.499Z,8.17
2023-01-29T12:27:21.006Z,9.67
2023-01-29T12:30:08.345Z,8.40
2023-01-29T12:32:43.892Z,10.10
2023-01-29T12:35:20.295Z,9.43
2023-01-29T12:37:56.791Z,9.73
2023-01-29T12:40:28.536Z,8.93
2023-01-29T12:43:03.974Z,8.03
2023-01-29T12:45:35.522Z,9.27
2023-01-29T12:48:09.355Z,8.83
2023-01-29T12:50:39.502Z,9.07
2023-01-29T12:53:21.082Z,9.83
2023-01-29T12:55:55.599Z,8.87
2023-01-29T12:58:29.110Z,9.00
2023-01-29T13:01:05.088Z,8.63
2023-01-29T13:03:41.175Z,8.10
2023-01-29T13:06:12.807Z,8.57
2023-01-29T13:08:44.356Z,9.10
2023-01-29T13:11:18.801Z,9.20
2023-01-29T13:13:54.614Z,8.13
2023-01-29T13:16:28.737Z,8.70
2023-01-29T13:18:59.168Z,8.90
2023-01-29T13:21:32.017Z,7.73
2023-01-29T13:24:05.820Z,8.07
2023-01-29T13:26:34.591Z,8.27
2023-01-29T13:29:05.567Z,7.83
2023-01-29T13:31:36.938Z,8.90
2023-01-29T13:34:13.792Z,8.37
2023-01-29T13:36:45.233Z,7.90
2023-01-29T13:39:24.349Z,8.23
2023-01-29T13:41:53.921Z,8.50
2023-01-29T13:44:27.310Z,8.80
2023-01-29T13:46:59.733Z,9.20
2023-01-29T13:49:36.054Z,7.97
2023-01-29T13:52:22.345Z,8.83
2023-01-29T13:54:54.648Z,8.73
2023-01-29T13:57:48.615Z,7.37
2023-01-29T14:00:57.444Z,8.43
2023-01-29T14:04:03.695Z,8.50
2023-01-29T14:06:48.508Z,8.03
2023-01-29T14:10:04.627Z,7.70
2023-01-29T14:12:46.836Z,8.13
2023-01-29T14:15:27.025Z,8.90
2023-01-29T14:18:14.215Z,8.57
2023-01-29T14:20:54.109Z,8.20
2023-01-29T14:23:36.812Z,8.07
2023-01-29T14:26:07.430Z,6.90
2023-01-29T14:28:36.592Z,7.50
2023-01-29T14:31:07.946Z,7.73
2023-01-29T14:33:39.809Z,7.47
2023-01-29T14:36:16.870Z,9.07
2023-01-29T14:38:51.903Z,7.13
2023-01-29T14:41:27.677Z,7.30
2023-01-29T14:44:29.593Z,7.37
2023-01-29T14:46:57.891Z,7.93
2023-01-29T14:49:52.252Z,9.00
2023-01-29T14:52:25.832Z,8.40
2023-01-29T14:54:58.406Z,8.63
2023-01-29T14:57:28.013Z,8.30
2023-01-29T15:00:00.743Z,7.73
2023-01-29T15:02:37.180Z,7.47
2023-01-29T15:05:12.078Z,8.80
2023-01-29T15:07:48.399Z,7.87
2023-01-29T15:10:23.195Z,8.73
2023-01-29T15:12:58.230Z,8.37
2023-01-29T15:15:36.410Z,7.90
2023-01-29T15:18:09.054Z,8.70
2023-01-29T15:20:39.735Z,8.67
2023-01-29T15:26:06.087Z,7.90
2023-01-29T15:28:37.496Z,9.10
2023-01-29T15:31:15.196Z,8.10
2023-01-29T15:33:47.100Z,9.13
2023-01-29T15:36:24.752Z,8.27
2023-01-29T15:39:16.255Z,8.57
2023-01-29T15:41:46.837Z,8.87
2023-01-29T15:44:23.676Z,9.30
2023-01-29T15:46:58.147Z,7.70
2023-01-29T15:49:32.076Z,8.50
2023-01-29T15:52:04.104Z,9.23
2023-01-29T15:54:34.967Z,10.23
2023-01-29T15:57:05.618Z,7.97
2023-01-29T15:59:40.299Z,9.40
2023-01-29T16:02:29.349Z,8.67
2023-01-29T16:04:58.779Z,7.20
2023-01-29T16:07:30.185Z,10.77
2023-01-29T16:10:01.743Z,9.60
2023-01-29T16:12:34.709Z,10.37
2023-01-29T16:15:08.718Z,8.43
2023-01-29T16:17:42.631Z,9.70
2023-01-29T16:20:32.085Z,8.47
2023-01-29T16:23:02.018Z,9.60
2023-01-29T16:25:37.252Z,8.67
2023-01-29T16:28:11.385Z,8.40
2023-01-29T16:30:41.591Z,8.50
2023-01-29T16:33:15.594Z,9.60
2023-01-29T16:35:51.666Z,9.60
2023-01-29T16:38:30.447Z,9.63
2023-01-29T16:41:16.595Z,9.40
2023-01-29T16:44:01.817Z,9.50
2023-01-29T16:46:49.730Z,8.57
2023-01-29T16:49:48.879Z,8.10
2023-01-29T16:52:24.794Z,9.10
2023-01-29T16:54:57.093Z,8.83
2023-01-29T16:57:34.015Z,9.43
2023-01-29T17:00:17.771Z,9.00
2023-01-29T17:02:56.142Z,9.43
2023-01-29T17:05:29.526Z,9.47
2023-01-29T17:08:00.398Z,11.20
2023-01-29T17:10:31.212Z,10.23
2023-01-29T17:13:05.581Z,10.50
2023-01-29T17:15:44.650Z,10.60
2023-01-29T17:18:19.870Z,11.13
2023-01-29T17:20:49.103Z,12.90
2023-01-29T17:23:20.617Z,13.47
2023-01-29T17:25:50.341Z,14.47
2023-01-29T17:28:22.736Z,13.97
2023-01-29T17:31:05.727Z,13.73
2023-01-29T17:33:39.248Z,15.10
2023-01-29T17:36:11.749Z,14.20
2023-01-29T17:38:41.692Z,13.93
2023-01-29T17:41:15.428Z,12.20
2023-01-29T17:43:45.208Z,12.70
2023-01-29T17:46:19.362Z,11.67
2023-01-29T17:48:49.949Z,12.97
2023-01-29T17:51:25.032Z,15.40
2023-01-29T17:53:56.781Z,13.03
2023-01-29T17:56:28.492Z,12.37
2023-01-29T17:59:01.442Z,12.63
2023-01-29T18:01:33.368Z,11.73
2023-01-29T18:04:03.407Z,11.57
2023-01-29T18:06:33.035Z,10.63
2023-01-29T18:09:05.779Z,10.73
2023-01-29T18:11:38.465Z,11.20
2023-01-29T18:14:14.279Z,10.77
2023-01-29T18:16:48.162Z,11.37
2023-01-29T18:19:22.959Z,11.07
2023-01-29T18:21:54.065Z,9.93
2023-01-29T18:24:26.640Z,9.87
2023-01-29T18:26:56.909Z,12.93
2023-01-29T18:29:31.238Z,11.60
2023-01-29T18:32:06.621Z,10.63
2023-01-29T18:34:43.760Z,11.13
2023-01-29T18:37:13.701Z,11.67
2023-01-29T18:39:45.196Z,10.93
2023-01-29T18:42:14.628Z,11.63
2023-01-29T18:44:47.515Z,11.50
2023-01-29T18:47:24.500Z,9.93
2023-01-29T18:49:56.035Z,12.13
2023-01-29T18:52:29.387Z,12.27
2023-01-29T18:55:10.157Z,12.43
2023-01-29T18:58:26.123Z,11.00
2023-01-29T19:00:39.690Z,10.63
2023-01-29T19:03:12.604Z,12.17
2023-01-29T19:05:46.002Z,12.03
2023-01-29T19:08:26.667Z,11.53
2023-01-29T19:11:04.638Z,10.57
2023-01-29T19:13:35.103Z,11.20
2023-01-29T19:16:12.087Z,11.50
2023-01-29T19:18:46.803Z,10.63
2023-01-29T19:21:23.145Z,10.77
2023-01-29T19:23:53.986Z,11.13
2023-01-29T19:26:25.820Z,11.33
2023-01-29T19:28:58.053Z,12.80
2023-01-29T19:31:29.548Z,11.20
2023-01-29T19:34:01.542Z,10.93
2023-01-29T19:36:34.267Z,11.27
2023-01-29T19:39:10.292Z,12.03
2023-01-29T19:41:45.863Z,10.50
2023-01-29T19:44:19.681Z,10.90
2023-01-29T19:46:52.250Z,11.07
2023-01-29T19:49:27.154Z,10.30
2023-01-29T19:51:59.945Z,10.83
2023-01-29T19:54:31.037Z,11.80
2023-01-29T19:57:03.167Z,11.00
2023-01-29T19:59:45.851Z,11.30
2023-01-29T20:02:17.760Z,11.43
2023-01-29T20:04:51.332Z,10.80
2023-01-29T20:07:22.264Z,10.53
2023-01-29T20:09:52.743Z,9.97
2023-01-29T20:12:24.100Z,10.67
2023-01-29T20:14:53.548Z,10.30
2023-01-29T20:17:27.317Z,11.93
2023-01-29T20:19:58.688Z,9.90
2023-01-29T20:22:31.563Z,10.97
2023-01-29T20:25:02.123Z,8.73
2023-01-29T20:27:36.074Z,9.43
2023-01-29T20:30:06.964Z,8.90
2023-01-29T20:32:39.156Z,8.83
2023-01-29T20:35:13.969Z,9.53
2023-01-29T20:37:44.282Z,9.67
2023-01-29T20:40:18.048Z,9.17
2023-01-29T20:42:49.943Z,9.37
2023-01-29T20:45:19.148Z,8.57
2023-01-29T20:47:51.789Z,9.47
2023-01-29T20:50:25.242Z,8.83
2023-01-29T20:52:56.514Z,8.40
2023-01-29T20:55:33.232Z,8.57
2023-01-29T20:58:06.926Z,9.00
2023-01-29T21:00:37.759Z,8.80
2023-01-29T21:03:11.084Z,9.00
2023-01-29T21:05:42.334Z,8.53
2023-01-29T21:08:17.255Z,8.63
2023-01-29T21:10:47.493Z,10.80
2023-01-29T21:13:20.825Z,8.57
2023-01-29T21:15:52.280Z,10.00
2023-01-29T21:18:28.351Z,8.83
2023-01-29T21:21:02.154Z,9.30
2023-01-29T21:23:37.337Z,9.53
2023-01-29T21:26:11.248Z,8.37
2023-01-29T21:28:43.860Z,9.50
2023-01-29T21:31:16.812Z,8.50
2023-01-29T21:33:49.552Z,9.23
2023-01-29T21:36:21.420Z,9.43
2023-01-29T21:38:53.692Z,8.47
2023-01-29T21:41:46.057Z,8.87
2023-01-29T21:44:19.702Z,8.73
2023-01-29T21:46:48.873Z,9.00
2023-01-29T21:49:23.625Z,9.07
2023-01-29T21:52:04.960Z,9.17
2023-01-29T21:54:41.334Z,9.03
2023-01-29T21:57:15.737Z,8.27
2023-01-29T21:59:53.167Z,9.07
2023-01-29T22:02:27.056Z,9.03
2023-01-29T22:05:16.589Z,8.33
2023-01-29T22:07:51.886Z,8.57
2023-01-29T22:10:22.542Z,9.00
2023-01-29T22:12:52.106Z,8.67
2023-01-29T22:15:24.032Z,8.07
2023-01-29T22:17:52.749Z,8.43
2023-01-29T22:20:30.012Z,8.40
2023-01-29T22:23:01.870Z,9.40
2023-01-29T22:25:31.596Z,9.20
2023-01-29T22:28:00.122Z,8.50
2023-01-29T22:30:28.784Z,9.57
2023-01-29T22:32:57.120Z,8.43
2023-01-29T22:35:26.127Z,8.97
2023-01-29T22:37:54.825Z,9.20
2023-01-29T22:40:25.810Z,9.13
2023-01-29T22:42:55.741Z,8.17
2023-01-29T22:45:28.370Z,9.37
2023-01-29T22:47:58.598Z,9.37
2023-01-29T22:50:29.268Z,9.90
2023-01-29T22:53:02.176Z,8.50
2023-01-29T22:55:40.090Z,9.50
2023-01-29T22:58:11.855Z,9.23
2023-01-29T23:00:48.993Z,9.30
2023-01-29T23:03:21.259Z,9.40
2023-01-29T23:05:51.182Z,9.50
2023-01-29T23:08:20.399Z,9.40
2023-01-29T23:10:53.063Z,9.00
2023-01-29T23:13:23.406Z,8.53
2023-01-29T23:16:03.085Z,8.83
2023-01-29T23:18:34.207Z,8.87
2023-01-29T23:21:08.217Z,7.87
2023-01-29T23:23:39.446Z,8.73
2023-01-29T23:26:32.887Z,9.97
2023-01-29T23:29:05.000Z,9.23
2023-01-29T23:31:38.612Z,8.80
2023-01-29T23:34:09.564Z,9.33
2023-01-29T23:36:39.866Z,9.17
2023-01-29T23:39:14.329Z,9.00
2023-01-29T23:41:51.461Z,8.87
2023-01-29T23:44:21.672Z,8.40
2023-01-29T23:46:55.415Z,8.47
2023-01-29T23:49:27.176Z,7.93
2023-01-29T23:51:58.013Z,8.03
2023-01-29T23:54:27.695Z,8.00
2023-01-29T23:57:05.041Z,7.87
2023-01-29T23:59:34.269Z,7.80
